createdAt,value
2023-05-10T00:01:48.475Z,97953.59
2023-05-10T00:04:15.178Z,97957.06
2023-05-10T00:06:42.199Z,97953.47
2023-05-10T00:09:08.939Z,97955.28
2023-05-10T00:11:35.814Z,97965.25
2023-05-10T00:14:02.724Z,97950.88
2023-05-10T00:16:44.398Z,97956.84
2023-05-10T00:19:11.208Z,97960.56
2023-05-10T00:21:38.210Z,97960.75
2023-05-10T00:24:05.644Z,97956.63
2023-05-10T00:26:36.362Z,97960.19
2023-05-10T00:29:06.260Z,97955.44
2023-05-10T00:31:33.166Z,97963.09
2023-05-10T00:34:00.895Z,97959.28
2023-05-10T00:36:28.787Z,97966.16
2023-05-10T00:38:55.495Z,97954.47
2023-05-10T00:41:23.463Z,97965.66
2023-05-10T00:43:51.991Z,97967.25
2023-05-10T00:46:22.558Z,97970.81
2023-05-10T00:48:53.555Z,97967.38
2023-05-10T00:51:20.773Z,97968.69
2023-05-10T00:53:50.428Z,97970.44
2023-05-10T00:56:24.756Z,97973.03
2023-05-10T00:58:53.189Z,97978.34
2023-05-10T01:01:20.660Z,97995.63
2023-05-10T01:03:50.230Z,97980.75
2023-05-10T01:06:17.262Z,97991.31
2023-05-10T01:08:44.452Z,97987.50
2023-05-10T01:11:11.280Z,97995.00
2023-05-10T01:13:42.204Z,97985.09
2023-05-10T01:16:13.569Z,97986.72
2023-05-10T01:18:41.803Z,97992.66
2023-05-10T01:21:37.342Z,97986.88
2023-05-10T01:24:35.327Z,97990.06
2023-05-10T01:27:04.840Z,97987.06
2023-05-10T01:30:15.573Z,97991.56
2023-05-10T01:33:05.271Z,98006.28
2023-05-10T01:35:41.410Z,98006.28
2023-05-10T01:38:19.862Z,98006.97
2023-05-10T01:40:53.656Z,98006.50
2023-05-10T01:43:24.462Z,98007.28
2023-05-10T01:46:12.012Z,98005.81
2023-05-10T01:48:48.012Z,98014.47
2023-05-10T01:51:18.530Z,98006.66
2023-05-10T01:53:49.253Z,98010.66
2023-05-10T01:56:17.128Z,98008.91
2023-05-10T01:58:49.604Z,98015.63
2023-05-10T02:01:20.020Z,98030.34
2023-05-10T02:03:48.223Z,98023.47
2023-05-10T02:06:20.730Z,98022.34
2023-05-10T02:08:48.894Z,98035.31
2023-05-10T02:11:15.839Z,98025.25
2023-05-10T02:13:44.512Z,98038.69
2023-05-10T02:16:13.681Z,98026.06
2023-05-10T02:18:41.778Z,98027.66
2023-05-10T02:21:09.859Z,98020.44
2023-05-10T02:23:38.328Z,98020.28
2023-05-10T02:26:06.891Z,98033.41
2023-05-10T02:28:34.892Z,98035.00
2023-05-10T02:31:02.276Z,98031.94
2023-05-10T02:33:32.025Z,98031.47
2023-05-10T02:35:59.275Z,98033.84
2023-05-10T02:38:27.946Z,98043.00
2023-05-10T02:40:55.692Z,98045.84
2023-05-10T02:43:24.300Z,98052.72
2023-05-10T02:45:51.182Z,98052.72
2023-05-10T02:48:17.966Z,98056.59
2023-05-10T02:50:47.353Z,98054.31
2023-05-10T02:53:23.379Z,98056.25
2023-05-10T02:55:53.293Z,98055.91
2023-05-10T02:58:22.823Z,98044.88
2023-05-10T03:00:49.341Z,98052.72
2023-05-10T03:03:16.078Z,98051.13
2023-05-10T03:05:42.651Z,98048.88
2023-05-10T03:08:10.106Z,98045.84
2023-05-10T03:10:46.249Z,98049.50
2023-05-10T03:14:04.890Z,98055.91
2023-05-10T03:16:44.176Z,98063.78
2023-05-10T03:19:23.598Z,98049.53
2023-05-10T03:21:52.579Z,98069.06
2023-05-10T03:24:22.758Z,98063.97
2023-05-10T03:26:51.144Z,98067.94
2023-05-10T03:29:18.532Z,98072.94
2023-05-10T03:31:45.378Z,98075.31
2023-05-10T03:34:12.265Z,98067.81
2023-05-10T03:36:38.833Z,98062.69
2023-05-10T03:39:05.445Z,98068.13
2023-05-10T03:41:31.974Z,98069.75
2023-05-10T03:43:58.986Z,98070.66
2023-05-10T03:46:26.340Z,98081.25
2023-05-10T03:48:52.945Z,98075.31
2023-05-10T03:51:19.494Z,98075.47
2023-05-10T03:53:46.186Z,98075.47
2023-05-10T03:56:12.988Z,98065.06
2023-05-10T03:58:39.665Z,98070.50
2023-05-10T04:01:07.130Z,98075.16
2023-05-10T04:03:33.729Z,98069.38
2023-05-10T04:06:02.439Z,98068.25
2023-05-10T04:08:30.008Z,98070.34
2023-05-10T04:11:06.628Z,98071.94
2023-05-10T04:13:33.330Z,98078.34
2023-05-10T04:15:59.948Z,98077.38
2023-05-10T04:18:27.062Z,98078.97
2023-05-10T04:20:53.521Z,98069.53
2023-05-10T04:23:20.220Z,98081.69
2023-05-10T04:25:47.131Z,98093.84
2023-05-10T04:28:14.321Z,98073.22
2023-05-10T04:30:41.541Z,98080.56
2023-05-10T04:33:08.355Z,98082.66
2023-05-10T04:35:36.039Z,98079.63
2023-05-10T04:38:03.715Z,98093.25
2023-05-10T04:40:30.223Z,98094.84
2023-05-10T04:42:56.876Z,98092.13
2023-05-10T04:45:23.444Z,98091.34
2023-05-10T04:47:50.086Z,98095.00
2023-05-10T04:50:16.993Z,98097.09
2023-05-10T04:52:43.746Z,98092.44
2023-05-10T04:55:13.894Z,98099.31
2023-05-10T04:57:40.748Z,98099.19
2023-05-10T05:00:07.979Z,98101.91
2023-05-10T05:02:34.644Z,98106.22
2023-05-10T05:05:01.301Z,98109.41
2023-05-10T05:07:27.930Z,98108.63
2023-05-10T05:09:54.425Z,98114.69
2023-05-10T05:12:21.025Z,98115.66
2023-05-10T05:14:47.562Z,98114.03
2023-05-10T05:17:14.131Z,98114.00
2023-05-10T05:19:40.658Z,98127.91
2023-05-10T05:22:09.107Z,98115.88
2023-05-10T05:24:39.113Z,98125.47
2023-05-10T05:27:05.893Z,98128.88
2023-05-10T05:29:32.612Z,98129.81
2023-05-10T05:31:59.286Z,98123.03
2023-05-10T05:34:26.181Z,98129.97
2023-05-10T05:36:52.787Z,98124.84
2023-05-10T05:39:19.294Z,98129.50
2023-05-10T05:41:46.106Z,98125.31
2023-05-10T05:44:12.571Z,98131.03
2023-05-10T05:46:39.129Z,98130.38
2023-05-10T05:49:05.704Z,98137.59
2023-05-10T05:51:32.187Z,98144.94
2023-05-10T05:53:58.923Z,98142.22
2023-05-10T05:56:25.662Z,98153.28
2023-05-10T05:58:52.421Z,98141.09
2023-05-10T06:01:19.116Z,98148.31
2023-05-10T06:03:46.845Z,98148.97
2023-05-10T06:06:16.716Z,98146.72
2023-05-10T06:08:43.388Z,98148.59
2023-05-10T06:11:09.878Z,98144.72
2023-05-10T06:13:36.487Z,98149.53
2023-05-10T06:16:03.792Z,98146.31
2023-05-10T06:18:33.346Z,98143.28
2023-05-10T06:21:00.006Z,98149.47
2023-05-10T06:23:26.503Z,98161.88
2023-05-10T06:25:53.468Z,98159.13
2023-05-10T06:28:19.933Z,98163.47
2023-05-10T06:30:46.487Z,98170.50
2023-05-10T06:33:13.095Z,98167.13
2023-05-10T06:35:39.920Z,98166.47
2023-05-10T06:38:06.976Z,98164.38
2023-05-10T06:40:33.895Z,98161.19
2023-05-10T06:43:00.572Z,98181.91
2023-05-10T06:45:27.183Z,98173.25
2023-05-10T06:47:53.976Z,98174.72
2023-05-10T06:50:20.691Z,98171.94
2023-05-10T06:52:47.302Z,98171.94
2023-05-10T06:55:13.903Z,98172.22
2023-05-10T06:57:40.582Z,98174.88
2023-05-10T07:00:08.079Z,98175.94
2023-05-10T07:02:34.852Z,98167.56
2023-05-10T07:05:03.136Z,98170.75
2023-05-10T07:07:30.205Z,98180.34
2023-05-10T07:09:58.536Z,98184.91
2023-05-10T07:12:26.114Z,98173.03
2023-05-10T07:14:53.186Z,98175.75
2023-05-10T07:17:19.856Z,98183.16
2023-05-10T07:19:46.414Z,98178.75
2023-05-10T07:22:16.332Z,98186.56
2023-05-10T07:24:42.911Z,98174.78
2023-05-10T07:27:11.308Z,98183.03
2023-05-10T07:29:38.490Z,98180.88
2023-05-10T07:32:05.556Z,98181.19
2023-05-10T07:34:32.974Z,98186.09
2023-05-10T07:37:00.089Z,98186.72
2023-05-10T07:39:28.381Z,98194.09
2023-05-10T07:41:56.224Z,98195.59
2023-05-10T07:44:26.765Z,98198.53
2023-05-10T07:46:53.509Z,98194.31
2023-05-10T07:49:20.240Z,98207.31
2023-05-10T07:51:49.738Z,98204.03
2023-05-10T07:54:18.379Z,98195.50
2023-05-10T07:56:48.082Z,98202.56
2023-05-10T07:59:16.829Z,98211.75
2023-05-10T08:01:44.179Z,98213.94
2023-05-10T08:04:11.093Z,98208.47
2023-05-10T08:06:37.848Z,98212.78
2023-05-10T08:09:04.426Z,98215.81
2023-05-10T08:11:31.276Z,98209.97
2023-05-10T08:13:58.446Z,98214.34
2023-05-10T08:16:25.352Z,98212.50
2023-05-10T08:18:52.492Z,98208.63
2023-05-10T08:21:19.504Z,98203.97
2023-05-10T08:23:46.385Z,98212.88
2023-05-10T08:26:13.129Z,98216.06
2023-05-10T08:28:40.880Z,98211.47
2023-05-10T08:31:07.543Z,98215.16
2023-05-10T08:33:35.270Z,98223.34
2023-05-10T08:36:06.236Z,98219.28
2023-05-10T08:38:36.006Z,98207.50
2023-05-10T08:41:03.679Z,98218.28
2023-05-10T08:43:32.355Z,98220.47
2023-05-10T08:46:03.803Z,98213.41
2023-05-10T08:48:31.977Z,98223.28
2023-05-10T08:51:01.110Z,98222.25
2023-05-10T08:53:29.761Z,98228.50
2023-05-10T08:55:56.647Z,98228.66
2023-05-10T08:58:23.392Z,98231.50
2023-05-10T09:00:53.954Z,98226.78
2023-05-10T09:03:20.651Z,98225.41
2023-05-10T09:05:47.774Z,98232.19
2023-05-10T09:08:16.749Z,98235.75
2023-05-10T09:10:44.751Z,98222.41
2023-05-10T09:13:12.806Z,98234.41
2023-05-10T09:15:40.022Z,98240.91
2023-05-10T09:18:06.681Z,98235.38
2023-05-10T09:20:33.482Z,98236.19
2023-05-10T09:23:03.212Z,98239.47
2023-05-10T09:25:32.366Z,98239.25
2023-05-10T09:27:58.896Z,98247.00
2023-05-10T09:30:33.111Z,98250.09
2023-05-10T09:33:01.315Z,98260.47
2023-05-10T09:35:30.641Z,98247.69
2023-05-10T09:38:01.693Z,98249.41
2023-05-10T09:40:30.121Z,98255.00
2023-05-10T09:43:01.002Z,98244.13
2023-05-10T09:45:36.207Z,98254.31
2023-05-10T09:48:07.253Z,98257.31
2023-05-10T09:50:37.736Z,98253.22
2023-05-10T09:53:05.101Z,98243.19
2023-05-10T09:55:42.371Z,98243.19
2023-05-10T09:58:11.921Z,98266.91
2023-05-10T10:00:41.286Z,98253.66
2023-05-10T10:03:16.186Z,98256.06
2023-05-10T10:05:44.637Z,98253.41
2023-05-10T10:08:14.117Z,98261.00
2023-05-10T10:10:41.872Z,98254.69
2023-05-10T10:13:09.429Z,98253.66
2023-05-10T10:15:37.049Z,98261.50
2023-05-10T10:18:05.246Z,98262.78
2023-05-10T10:20:32.422Z,98255.50
2023-05-10T10:22:59.053Z,98257.34
2023-05-10T10:25:26.578Z,98253.97
2023-05-10T10:27:53.351Z,98254.72
2023-05-10T10:30:38.191Z,98257.09
2023-05-10T10:33:32.160Z,98247.00
2023-05-10T10:36:03.663Z,98254.53
2023-05-10T10:38:48.511Z,98258.81
2023-05-10T10:41:32.350Z,98249.34
2023-05-10T10:44:27.188Z,98254.03
2023-05-10T10:47:14.268Z,98249.06
2023-05-10T10:49:40.787Z,98261.84
2023-05-10T10:52:23.614Z,98264.34
2023-05-10T10:55:06.306Z,98262.06
2023-05-10T10:57:35.309Z,98255.97
2023-05-10T11:00:23.958Z,98262.03
2023-05-10T11:02:59.067Z,98260.09
2023-05-10T11:05:29.788Z,98256.44
2023-05-10T11:07:58.462Z,98275.94
2023-05-10T11:10:26.562Z,98260.06
2023-05-10T11:12:53.190Z,98274.91
2023-05-10T11:15:24.590Z,98266.69
2023-05-10T11:17:53.109Z,98259.28
2023-05-10T11:20:24.066Z,98274.13
2023-05-10T11:22:54.129Z,98268.63
2023-05-10T11:25:21.623Z,98252.03
2023-05-10T11:27:49.210Z,98259.78
2023-05-10T11:30:16.661Z,98265.09
2023-05-10T11:32:43.817Z,98260.19
2023-05-10T11:35:12.521Z,98269.22
2023-05-10T11:37:42.431Z,98268.75
2023-05-10T11:40:10.777Z,98259.50
2023-05-10T11:42:38.626Z,98268.06
2023-05-10T11:45:06.303Z,98273.19
2023-05-10T11:47:33.481Z,98276.03
2023-05-10T11:50:04.174Z,98266.06
2023-05-10T11:52:36.351Z,98278.06
2023-05-10T11:55:03.746Z,98278.88
2023-05-10T11:57:31.349Z,98282.44
2023-05-10T11:59:58.810Z,98284.94
2023-05-10T12:02:25.797Z,98282.31
2023-05-10T12:07:21.476Z,98291.91
2023-05-10T12:10:08.858Z,98285.88
2023-05-10T12:12:46.532Z,98290.06
2023-05-10T12:15:19.621Z,98296.97
2023-05-10T12:17:47.171Z,98297.63
2023-05-10T12:20:17.119Z,98303.28
2023-05-10T12:22:55.636Z,98300.59
2023-05-10T12:25:24.278Z,98302.09
2023-05-10T12:27:56.263Z,98309.16
2023-05-10T12:30:26.338Z,98313.22
2023-05-10T12:32:53.861Z,98314.38
2023-05-10T12:35:22.929Z,98310.28
2023-05-10T12:37:49.303Z,98316.97
2023-05-10T12:40:15.994Z,98312.78
2023-05-10T12:42:42.601Z,98312.91
2023-05-10T12:45:09.865Z,98306.84
2023-05-10T12:47:37.222Z,98314.44
2023-05-10T12:50:06.257Z,98320.75
2023-05-10T12:52:33.422Z,98313.66
2023-05-10T12:55:01.176Z,98325.75
2023-05-10T12:57:28.428Z,98323.19
2023-05-10T12:59:55.456Z,98319.84
2023-05-10T13:02:23.880Z,98310.03
2023-05-10T13:07:17.732Z,98316.38
2023-05-10T13:09:44.389Z,98318.25
2023-05-10T13:12:10.891Z,98315.28
2023-05-10T13:14:37.389Z,98321.41
2023-05-10T13:17:03.987Z,98314.00
2023-05-10T13:19:31.888Z,98311.19
2023-05-10T13:21:58.982Z,98308.47
2023-05-10T13:24:25.576Z,98311.50
2023-05-10T13:26:52.294Z,98308.31
2023-05-10T13:29:19.203Z,98298.31
2023-05-10T13:31:45.992Z,98298.31
2023-05-10T13:34:12.466Z,98301.25
2023-05-10T13:36:39.122Z,98293.59
2023-05-10T13:39:06.226Z,98295.06
2023-05-10T13:41:32.777Z,98296.66
2023-05-10T13:43:59.790Z,98291.06
2023-05-10T13:46:26.517Z,98300.06
2023-05-10T13:48:52.919Z,98293.59
2023-05-10T13:51:19.403Z,98290.56
2023-05-10T13:53:46.129Z,98292.47
2023-05-10T13:56:12.960Z,98285.06
2023-05-10T13:58:39.395Z,98290.44
2023-05-10T14:01:05.944Z,98291.91
2023-05-10T14:03:33.474Z,98288.59
2023-05-10T14:06:00.211Z,98291.56
2023-05-10T14:08:27.992Z,98289.72
2023-05-10T14:10:54.443Z,98284.88
2023-05-10T14:13:20.873Z,98281.91
2023-05-10T14:15:49.199Z,98278.00
2023-05-10T14:18:15.912Z,98280.03
2023-05-10T14:20:42.415Z,98277.75
2023-05-10T14:23:10.471Z,98279.00
2023-05-10T14:25:39.050Z,98280.06
2023-05-10T14:28:05.716Z,98275.97
2023-05-10T14:30:33.648Z,98274.16
2023-05-10T14:33:02.045Z,98280.72
2023-05-10T14:35:29.353Z,98277.53
2023-05-10T14:37:56.019Z,98276.41
2023-05-10T14:40:22.489Z,98274.94
2023-05-10T14:42:49.345Z,98279.94
2023-05-10T14:45:16.071Z,98280.88
2023-05-10T14:47:42.696Z,98280.88
2023-05-10T14:50:09.271Z,98283.81
2023-05-10T14:52:37.201Z,98283.81
2023-05-10T14:55:04.030Z,98283.13
2023-05-10T14:57:30.666Z,98290.91
2023-05-10T14:59:57.961Z,98277.91
2023-05-10T15:02:24.911Z,98282.59
2023-05-10T15:04:51.964Z,98284.53
2023-05-10T15:07:19.301Z,98281.88
2023-05-10T15:09:46.178Z,98272.06
2023-05-10T15:12:12.711Z,98275.81
2023-05-10T15:14:39.134Z,98272.63
2023-05-10T15:17:07.566Z,98274.22
2023-05-10T15:19:34.264Z,98274.22
2023-05-10T15:22:00.831Z,98275.38
2023-05-10T15:24:29.237Z,98278.56
2023-05-10T15:26:56.217Z,98265.66
2023-05-10T15:29:22.682Z,98277.91
2023-05-10T15:31:50.251Z,98279.94
2023-05-10T15:34:17.164Z,98276.84
2023-05-10T15:36:43.658Z,98276.28
2023-05-10T15:39:10.208Z,98283.34
2023-05-10T15:41:36.843Z,98288.16
2023-05-10T15:44:03.375Z,98289.25
2023-05-10T15:46:30.328Z,98286.53
2023-05-10T15:48:58.235Z,98281.97
2023-05-10T15:51:24.655Z,98284.50
2023-05-10T15:54:05.905Z,98290.44
2023-05-10T15:56:34.894Z,98289.41
2023-05-10T15:59:01.353Z,98296.34
2023-05-10T16:01:28.538Z,98294.09
2023-05-10T16:03:55.039Z,98295.44
2023-05-10T16:06:21.426Z,98294.97
2023-05-10T16:08:49.225Z,98296.78
2023-05-10T16:11:15.685Z,98303.41
2023-05-10T16:13:42.137Z,98294.91
2023-05-10T16:16:08.953Z,98301.88
2023-05-10T16:18:35.911Z,98304.03
2023-05-10T16:21:02.725Z,98298.06
2023-05-10T16:23:29.503Z,98303.88
2023-05-10T16:25:57.223Z,98303.97
2023-05-10T16:28:23.675Z,98302.59
2023-05-10T16:30:50.117Z,98307.13
2023-05-10T16:33:16.783Z,98304.06
2023-05-10T16:35:43.901Z,98300.31
2023-05-10T16:38:11.137Z,98302.84
2023-05-10T16:40:37.561Z,98302.19
2023-05-10T16:43:03.919Z,98300.69
2023-05-10T16:45:33.207Z,98295.09
2023-05-10T16:47:59.778Z,98306.03
2023-05-10T16:50:26.291Z,98296.22
2023-05-10T16:52:52.771Z,98302.84
2023-05-10T16:55:19.453Z,98301.09
2023-05-10T16:57:46.144Z,98306.00
2023-05-10T17:00:13.014Z,98311.69
2023-05-10T17:02:39.607Z,98309.16
2023-05-10T17:05:06.526Z,98309.69
2023-05-10T17:07:32.989Z,98315.50
2023-05-10T17:09:59.414Z,98314.56
2023-05-10T17:12:26.120Z,98317.97
2023-05-10T17:14:52.750Z,98321.72
2023-05-10T17:17:19.285Z,98321.59
2023-05-10T17:19:45.715Z,98324.50
2023-05-10T17:22:13.055Z,98321.31
2023-05-10T17:24:39.481Z,98323.25
2023-05-10T17:27:05.823Z,98325.84
2023-05-10T17:29:32.564Z,98322.16
2023-05-10T17:31:59.206Z,98318.50
2023-05-10T17:34:25.838Z,98324.63
2023-05-10T17:36:52.211Z,98322.22
2023-05-10T17:39:18.569Z,98323.03
2023-05-10T17:41:45.082Z,98323.81
2023-05-10T17:44:13.077Z,98324.16
2023-05-10T17:46:39.531Z,98327.69
2023-05-10T17:49:06.081Z,98329.63
2023-05-10T17:51:32.536Z,98335.78
2023-05-10T17:53:58.988Z,98335.28
2023-05-10T17:56:25.485Z,98333.56
2023-05-10T17:58:52.117Z,98340.47
2023-05-10T18:01:19.643Z,98333.91
2023-05-10T18:03:46.334Z,98340.19
2023-05-10T18:06:12.954Z,98345.16
2023-05-10T18:08:39.509Z,98336.16
2023-05-10T18:11:05.951Z,98345.78
2023-05-10T18:13:32.400Z,98340.16
2023-05-10T18:15:59.315Z,98340.84
2023-05-10T18:18:25.788Z,98340.38
2023-05-10T18:20:56.540Z,98347.63
2023-05-10T18:23:24.322Z,98347.00
2023-05-10T18:25:52.052Z,98351.84
2023-05-10T18:28:18.766Z,98346.59
2023-05-10T18:30:47.341Z,98349.50
2023-05-10T18:33:13.857Z,98352.41
2023-05-10T18:35:40.535Z,98351.47
2023-05-10T18:38:11.312Z,98347.78
2023-05-10T18:40:38.586Z,98353.25
2023-05-10T18:43:05.226Z,98351.66
2023-05-10T18:45:31.664Z,98360.47
2023-05-10T18:47:58.058Z,98360.00
2023-05-10T18:50:24.524Z,98352.50
2023-05-10T18:52:50.978Z,98358.13
2023-05-10T18:55:17.858Z,98359.25
2023-05-10T18:57:45.124Z,98366.16
2023-05-10T19:00:12.497Z,98361.69
2023-05-10T19:02:40.049Z,98360.72
2023-05-10T19:05:07.447Z,98370.03
2023-05-10T19:07:34.052Z,98371.16
2023-05-10T19:10:00.594Z,98371.16
2023-05-10T19:12:27.028Z,98370.22
2023-05-10T19:14:53.547Z,98377.91
2023-05-10T19:17:20.252Z,98382.91
2023-05-10T19:19:48.548Z,98379.69
2023-05-10T19:22:15.006Z,98376.50
2023-05-10T19:24:41.412Z,98369.75
2023-05-10T19:27:09.054Z,98382.09
2023-05-10T19:29:35.556Z,98378.91
2023-05-10T19:32:02.030Z,98375.72
2023-05-10T19:34:28.512Z,98391.59
2023-05-10T19:36:54.914Z,98386.78
2023-05-10T19:39:21.400Z,98393.84
2023-05-10T19:41:49.100Z,98390.63
2023-05-10T19:44:15.714Z,98400.91
2023-05-10T19:46:42.149Z,98398.50
2023-05-10T19:49:10.683Z,98390.63
2023-05-10T19:51:37.131Z,98390.47
2023-05-10T19:54:05.572Z,98388.88
2023-05-10T19:56:31.973Z,98393.53
2023-05-10T19:58:58.418Z,98396.25
2023-05-10T20:01:24.973Z,98391.94
2023-05-10T20:03:51.611Z,98399.63
2023-05-10T20:06:18.066Z,98391.59
2023-05-10T20:08:44.730Z,98397.66
2023-05-10T20:11:12.098Z,98396.38
2023-05-10T20:13:38.603Z,98392.38
2023-05-10T20:16:06.165Z,98391.88
2023-05-10T20:18:32.872Z,98394.16
2023-05-10T20:21:00.629Z,98396.41
2023-05-10T20:23:27.486Z,98398.00
2023-05-10T20:25:54.602Z,98399.75
2023-05-10T20:28:23.038Z,98398.28
2023-05-10T20:30:53.259Z,98393.16
2023-05-10T20:33:20.067Z,98397.69
2023-05-10T20:35:46.668Z,98392.53
2023-05-10T20:38:13.239Z,98392.53
2023-05-10T20:40:39.684Z,98387.56
2023-05-10T20:43:06.348Z,98386.13
2023-05-10T20:45:32.976Z,98381.94
2023-05-10T20:47:59.543Z,98386.78
2023-05-10T20:50:26.035Z,98389.97
2023-05-10T20:52:52.489Z,98384.50
2023-05-10T20:55:19.437Z,98385.31
2023-05-10T20:57:46.431Z,98381.78
2023-05-10T21:00:15.479Z,98385.63
2023-05-10T21:02:43.569Z,98387.38
2023-05-10T21:05:10.156Z,98387.38
2023-05-10T21:07:36.740Z,98389.31
2023-05-10T21:10:03.459Z,98385.78
2023-05-10T21:12:29.848Z,98388.53
2023-05-10T21:14:56.288Z,98383.88
2023-05-10T21:17:22.762Z,98388.03
2023-05-10T21:19:50.293Z,98390.31
2023-05-10T21:22:16.733Z,98392.53
2023-05-10T21:24:43.605Z,98393.16
2023-05-10T21:27:10.040Z,98384.53
2023-05-10T21:29:36.475Z,98388.66
2023-05-10T21:32:02.983Z,98381.63
2023-05-10T21:34:29.498Z,98391.25
2023-05-10T21:36:55.879Z,98386.13
2023-05-10T21:39:22.299Z,98385.28
2023-05-10T21:41:48.762Z,98386.91
2023-05-10T21:44:15.265Z,98387.22
2023-05-10T21:46:41.734Z,98391.88
2023-05-10T21:49:09.303Z,98396.53
2023-05-10T21:51:35.775Z,98392.66
2023-05-10T21:54:02.255Z,98392.38
2023-05-10T21:56:28.742Z,98397.03
2023-05-10T21:58:55.235Z,98396.53
2023-05-10T22:01:21.677Z,98394.13
2023-05-10T22:03:48.247Z,98389.13
2023-05-10T22:06:14.733Z,98386.41
2023-05-10T22:08:41.223Z,98394.59
2023-05-10T22:11:07.910Z,98386.25
2023-05-10T22:13:34.243Z,98392.03
2023-05-10T22:16:00.674Z,98392.81
2023-05-10T22:18:27.160Z,98399.06
2023-05-10T22:20:53.595Z,98398.25
2023-05-10T22:23:20.134Z,98396.66
2023-05-10T22:25:46.726Z,98392.97
2023-05-10T22:28:13.169Z,98389.28
2023-05-10T22:30:42.154Z,98395.03
2023-05-10T22:33:08.558Z,98396.97
2023-05-10T22:35:35.116Z,98384.47
2023-05-10T22:38:01.551Z,98396.78
2023-05-10T22:40:28.212Z,98385.41
2023-05-10T22:42:54.608Z,98391.19
2023-05-10T22:45:21.188Z,98391.19
2023-05-10T22:47:47.655Z,98389.59
2023-05-10T22:50:14.507Z,98389.41
2023-05-10T22:52:41.190Z,98392.44
2023-05-10T22:55:07.960Z,98390.66
2023-05-10T22:57:34.567Z,98395.31
2023-05-10T23:00:01.499Z,98390.50
2023-05-10T23:02:27.936Z,98395.75
2023-05-10T23:04:54.442Z,98396.56
2023-05-10T23:07:20.961Z,98394.97
2023-05-10T23:09:47.636Z,98395.44
2023-05-10T23:12:14.302Z,98398.97
2023-05-10T23:14:41.700Z,98402.00
2023-05-10T23:17:08.640Z,98400.25
2023-05-10T23:19:35.033Z,98395.59
2023-05-10T23:22:01.387Z,98395.59
2023-05-10T23:24:28.084Z,98408.09
2023-05-10T23:26:54.541Z,98406.97
2023-05-10T23:29:20.959Z,98402.66
2023-05-10T23:31:51.198Z,98403.13
2023-05-10T23:34:17.787Z,98399.59
2023-05-10T23:36:44.193Z,98399.88
2023-05-10T23:39:11.808Z,98400.19
2023-05-10T23:41:38.227Z,98400.72
2023-05-10T23:44:04.912Z,98395.88
2023-05-10T23:46:31.319Z,98398.13
2023-05-10T23:48:57.728Z,98394.91
2023-05-10T23:51:24.214Z,98399.25
2023-05-10T23:53:50.626Z,98389.47
2023-05-10T23:56:17.177Z,98396.34
2023-05-10T23:58:44.118Z,98395.03
